sensor_id;sensor_type;location;lat;lon;timestamp;pressure;altitude;pressure_sealevel;temperature;humidity
63281;BME280;49406;51.044;3.766;2024-01-30T00:02:33;102641.64;;;11.77;100.00
63281;BME280;49406;51.044;3.766;2024-01-30T00:05:09;102641.92;;;11.75;100.00
63281;BME280;49406;51.044;3.766;2024-01-30T00:07:43;102641.55;;;11.69;100.00
63281;BME280;49406;51.044;3.766;2024-01-30T00:10:18;102641.83;;;11.66;100.00
63281;BME280;49406;51.044;3.766;2024-01-30T00:12:53;102642.90;;;11.67;100.00
63281;BME280;49406;51.044;3.766;2024-01-30T00:15:28;102645.81;;;11.76;100.00
63281;BME280;49406;51.044;3.766;2024-01-30T00:18:03;102637.04;;;11.81;100.00
63281;BME280;49406;51.044;3.766;2024-01-30T00:20:36;102634.61;;;11.81;100.00
63281;BME280;49406;51.044;3.766;2024-01-30T00:23:11;102625.54;;;11.72;100.00
63281;BME280;49406;51.044;3.766;2024-01-30T00:25:44;102625.85;;;11.60;100.00
63281;BME280;49406;51.044;3.766;2024-01-30T00:28:19;102626.46;;;11.62;100.00
63281;BME280;49406;51.044;3.766;2024-01-30T00:30:53;102617.16;;;11.61;100.00
63281;BME280;49406;51.044;3.766;2024-01-30T00:33:28;102616.99;;;11.62;100.00
63281;BME280;49406;51.044;3.766;2024-01-30T00:36:03;102608.10;;;11.53;100.00
63281;BME280;49406;51.044;3.766;2024-01-30T00:38:38;102614.35;;;11.51;100.00
63281;BME280;49406;51.044;3.766;2024-01-30T00:41:14;102615.04;;;11.56;100.00
63281;BME280;49406;51.044;3.766;2024-01-30T00:43:48;102615.59;;;11.62;100.00
63281;BME280;49406;51.044;3.766;2024-01-30T00:46:23;102616.81;;;11.62;100.00
63281;BME280;49406;51.044;3.766;2024-01-30T00:48:58;102610.59;;;11.59;100.00
63281;BME280;49406;51.044;3.766;2024-01-30T00:51:33;102610.34;;;11.57;100.00
63281;BME280;49406;51.044;3.766;2024-01-30T00:54:07;102613.08;;;11.55;100.00
63281;BME280;49406;51.044;3.766;2024-01-30T00:56:42;102613.04;;;11.59;100.00
63281;BME280;49406;51.044;3.766;2024-01-30T00:59:17;102613.75;;;11.59;100.00
63281;BME280;49406;51.044;3.766;2024-01-30T01:01:51;102609.80;;;11.57;100.00
63281;BME280;49406;51.044;3.766;2024-01-30T01:04:26;102611.08;;;11.53;100.00
63281;BME280;49406;51.044;3.766;2024-01-30T01:07:01;102605.24;;;11.57;100.00
63281;BME280;49406;51.044;3.766;2024-01-30T01:09:36;102600.64;;;11.60;100.00
63281;BME280;49406;51.044;3.766;2024-01-30T01:12:11;102598.86;;;11.59;100.00
63281;BME280;49406;51.044;3.766;2024-01-30T01:14:45;102595.17;;;11.54;100.00
63281;BME280;49406;51.044;3.766;2024-01-30T01:17:20;102594.13;;;11.54;100.00
63281;BME280;49406;51.044;3.766;2024-01-30T01:19:55;102590.60;;;11.54;100.00
63281;BME280;49406;51.044;3.766;2024-01-30T01:22:29;102586.34;;;11.57;100.00
63281;BME280;49406;51.044;3.766;2024-01-30T01:25:05;102577.11;;;11.58;100.00
63281;BME280;49406;51.044;3.766;2024-01-30T01:27:41;102585.42;;;11.61;100.00
63281;BME280;49406;51.044;3.766;2024-01-30T01:30:18;102580.04;;;11.57;100.00
63281;BME280;49406;51.044;3.766;2024-01-30T01:32:55;102577.96;;;11.53;100.00
63281;BME280;49406;51.044;3.766;2024-01-30T01:35:31;102581.40;;;11.45;100.00
63281;BME280;49406;51.044;3.766;2024-01-30T01:38:05;102585.63;;;11.46;100.00
63281;BME280;49406;51.044;3.766;2024-01-30T01:40:40;102589.55;;;11.42;100.00
63281;BME280;49406;51.044;3.766;2024-01-30T01:43:17;102584.13;;;11.38;100.00
63281;BME280;49406;51.044;3.766;2024-01-30T01:45:52;102585.43;;;11.35;100.00
63281;BME280;49406;51.044;3.766;2024-01-30T01:48:27;102580.96;;;11.32;100.00
63281;BME280;49406;51.044;3.766;2024-01-30T01:51:03;102583.18;;;11.35;100.00
63281;BME280;49406;51.044;3.766;2024-01-30T01:53:38;102584.64;;;11.37;100.00
63281;BME280;49406;51.044;3.766;2024-01-30T01:56:13;102582.52;;;11.36;100.00
63281;BME280;49406;51.044;3.766;2024-01-30T01:58:49;102576.27;;;11.33;100.00
63281;BME280;49406;51.044;3.766;2024-01-30T02:01:25;102574.27;;;11.30;100.00
63281;BME280;49406;51.044;3.766;2024-01-30T02:03:59;102574.33;;;11.32;100.00
63281;BME280;49406;51.044;3.766;2024-01-30T02:06:34;102571.91;;;11.39;100.00
63281;BME280;49406;51.044;3.766;2024-01-30T02:09:09;102572.27;;;11.39;100.00
63281;BME280;49406;51.044;3.766;2024-01-30T02:11:44;102572.23;;;11.43;100.00
63281;BME280;49406;51.044;3.766;2024-01-30T02:14:17;102565.84;;;11.41;100.00
63281;BME280;49406;51.044;3.766;2024-01-30T02:16:52;102565.96;;;11.39;100.00
63281;BME280;49406;51.044;3.766;2024-01-30T02:19:26;102557.27;;;11.40;100.00
63281;BME280;49406;51.044;3.766;2024-01-30T02:22:01;102546.02;;;11.50;100.00
63281;BME280;49406;51.044;3.766;2024-01-30T02:24:36;102546.58;;;11.62;100.00
63281;BME280;49406;51.044;3.766;2024-01-30T02:27:10;102550.50;;;11.76;100.00
63281;BME280;49406;51.044;3.766;2024-01-30T02:29:45;102555.80;;;11.82;100.00
63281;BME280;49406;51.044;3.766;2024-01-30T02:32:19;102559.11;;;11.77;100.00
63281;BME280;49406;51.044;3.766;2024-01-30T02:34:54;102558.51;;;11.69;100.00
63281;BME280;49406;51.044;3.766;2024-01-30T02:37:28;102563.16;;;11.72;100.00
63281;BME280;49406;51.044;3.766;2024-01-30T02:40:03;102561.98;;;11.74;100.00
63281;BME280;49406;51.044;3.766;2024-01-30T02:42:38;102562.49;;;11.74;100.00
63281;BME280;49406;51.044;3.766;2024-01-30T02:45:14;102559.42;;;11.70;100.00
63281;BME280;49406;51.044;3.766;2024-01-30T02:47:49;102555.14;;;11.73;100.00
63281;BME280;49406;51.044;3.766;2024-01-30T02:50:23;102559.70;;;11.79;100.00
63281;BME280;49406;51.044;3.766;2024-01-30T02:52:58;102561.79;;;11.78;100.00
63281;BME280;49406;51.044;3.766;2024-01-30T02:55:31;102557.66;;;11.70;100.00
63281;BME280;49406;51.044;3.766;2024-01-30T02:58:05;102567.31;;;11.70;100.00
63281;BME280;49406;51.044;3.766;2024-01-30T03:00:40;102567.61;;;11.74;100.00
63281;BME280;49406;51.044;3.766;2024-01-30T03:03:14;102565.98;;;11.78;100.00
63281;BME280;49406;51.044;3.766;2024-01-30T03:05:49;102564.60;;;11.78;100.00
63281;BME280;49406;51.044;3.766;2024-01-30T03:08:24;102567.65;;;11.75;100.00
63281;BME280;49406;51.044;3.766;2024-01-30T03:10:58;102572.98;;;11.72;100.00
63281;BME280;49406;51.044;3.766;2024-01-30T03:13:33;102567.91;;;11.78;100.00
63281;BME280;49406;51.044;3.766;2024-01-30T03:16:09;102562.66;;;11.78;100.00
63281;BME280;49406;51.044;3.766;2024-01-30T03:18:44;102561.85;;;11.75;100.00
63281;BME280;49406;51.044;3.766;2024-01-30T03:21:18;102556.98;;;11.71;100.00
63281;BME280;49406;51.044;3.766;2024-01-30T03:23:53;102552.88;;;11.68;100.00
63281;BME280;49406;51.044;3.766;2024-01-30T03:26:27;102550.44;;;11.74;100.00
63281;BME280;49406;51.044;3.766;2024-01-30T03:29:02;102550.94;;;11.79;100.00
63281;BME280;49406;51.044;3.766;2024-01-30T03:31:36;102549.98;;;11.77;100.00
63281;BME280;49406;51.044;3.766;2024-01-30T03:34:11;102552.99;;;11.72;100.00
63281;BME280;49406;51.044;3.766;2024-01-30T03:36:46;102554.10;;;11.68;100.00
63281;BME280;49406;51.044;3.766;2024-01-30T03:39:20;102548.02;;;11.70;100.00
63281;BME280;49406;51.044;3.766;2024-01-30T03:41:55;102552.16;;;11.73;100.00
63281;BME280;49406;51.044;3.766;2024-01-30T03:44:29;102551.95;;;11.72;100.00
63281;BME280;49406;51.044;3.766;2024-01-30T03:47:02;102552.09;;;11.65;100.00
63281;BME280;49406;51.044;3.766;2024-01-30T03:49:37;102554.63;;;11.62;100.00
63281;BME280;49406;51.044;3.766;2024-01-30T03:52:11;102553.27;;;11.64;100.00
63281;BME280;49406;51.044;3.766;2024-01-30T03:54:46;102548.96;;;11.60;100.00
63281;BME280;49406;51.044;3.766;2024-01-30T03:57:20;102547.36;;;11.54;100.00
63281;BME280;49406;51.044;3.766;2024-01-30T03:59:55;102542.69;;;11.44;100.00
63281;BME280;49406;51.044;3.766;2024-01-30T04:02:30;102546.58;;;11.41;100.00
63281;BME280;49406;51.044;3.766;2024-01-30T04:05:05;102541.27;;;11.43;100.00
63281;BME280;49406;51.044;3.766;2024-01-30T04:07:40;102539.36;;;11.40;100.00
63281;BME280;49406;51.044;3.766;2024-01-30T04:10:14;102537.89;;;11.37;100.00
63281;BME280;49406;51.044;3.766;2024-01-30T04:12:49;102537.59;;;11.28;100.00
63281;BME280;49406;51.044;3.766;2024-01-30T04:15:23;102538.63;;;11.23;100.00
63281;BME280;49406;51.044;3.766;2024-01-30T04:18:00;102543.17;;;11.27;100.00
63281;BME280;49406;51.044;3.766;2024-01-30T04:20:34;102539.25;;;11.25;100.00
63281;BME280;49406;51.044;3.766;2024-01-30T04:23:09;102538.65;;;11.24;100.00
63281;BME280;49406;51.044;3.766;2024-01-30T04:25:43;102526.33;;;11.16;100.00
63281;BME280;49406;51.044;3.766;2024-01-30T04:28:18;102528.86;;;11.12;100.00
63281;BME280;49406;51.044;3.766;2024-01-30T04:30:52;102527.28;;;11.12;100.00
63281;BME280;49406;51.044;3.766;2024-01-30T04:33:27;102525.69;;;11.11;100.00
63281;BME280;49406;51.044;3.766;2024-01-30T04:36:01;102528.70;;;11.19;100.00
63281;BME280;49406;51.044;3.766;2024-01-30T04:38:36;102528.33;;;11.18;100.00
63281;BME280;49406;51.044;3.766;2024-01-30T04:41:10;102530.95;;;11.18;100.00
63281;BME280;49406;51.044;3.766;2024-01-30T04:43:45;102531.04;;;11.15;100.00
63281;BME280;49406;51.044;3.766;2024-01-30T04:46:19;102525.45;;;11.16;100.00
63281;BME280;49406;51.044;3.766;2024-01-30T04:48:54;102527.13;;;11.24;100.00
63281;BME280;49406;51.044;3.766;2024-01-30T04:51:29;102528.34;;;11.24;100.00
63281;BME280;49406;51.044;3.766;2024-01-30T04:54:04;102525.18;;;11.24;100.00
63281;BME280;49406;51.044;3.766;2024-01-30T04:56:38;102527.11;;;11.24;100.00
63281;BME280;49406;51.044;3.766;2024-01-30T04:59:13;102532.68;;;11.23;100.00
63281;BME280;49406;51.044;3.766;2024-01-30T05:01:47;102540.10;;;11.19;100.00
63281;BME280;49406;51.044;3.766;2024-01-30T05:04:22;102541.31;;;11.19;100.00
63281;BME280;49406;51.044;3.766;2024-01-30T05:06:56;102536.55;;;11.18;100.00
63281;BME280;49406;51.044;3.766;2024-01-30T05:09:31;102531.70;;;11.25;100.00
63281;BME280;49406;51.044;3.766;2024-01-30T05:12:06;102534.11;;;11.28;100.00
63281;BME280;49406;51.044;3.766;2024-01-30T05:14:41;102534.77;;;11.33;100.00
63281;BME280;49406;51.044;3.766;2024-01-30T05:17:15;102531.63;;;11.33;100.00
63281;BME280;49406;51.044;3.766;2024-01-30T05:19:50;102536.13;;;11.32;100.00
63281;BME280;49406;51.044;3.766;2024-01-30T05:22:25;102530.73;;;11.32;100.00
63281;BME280;49406;51.044;3.766;2024-01-30T05:24:59;102530.52;;;11.37;100.00
63281;BME280;49406;51.044;3.766;2024-01-30T05:27:34;102529.86;;;11.38;100.00
63281;BME280;49406;51.044;3.766;2024-01-30T05:30:10;102525.27;;;11.42;100.00
63281;BME280;49406;51.044;3.766;2024-01-30T05:32:44;102531.40;;;11.48;100.00
63281;BME280;49406;51.044;3.766;2024-01-30T05:35:19;102543.88;;;11.43;100.00
63281;BME280;49406;51.044;3.766;2024-01-30T05:37:53;102550.20;;;11.33;100.00
63281;BME280;49406;51.044;3.766;2024-01-30T05:40:28;102561.52;;;11.32;100.00
63281;BME280;49406;51.044;3.766;2024-01-30T05:43:02;102563.35;;;11.34;100.00
63281;BME280;49406;51.044;3.766;2024-01-30T05:45:37;102564.52;;;11.32;100.00
63281;BME280;49406;51.044;3.766;2024-01-30T05:48:12;102567.92;;;11.35;100.00
63281;BME280;49406;51.044;3.766;2024-01-30T05:50:46;102570.98;;;11.31;100.00
63281;BME280;49406;51.044;3.766;2024-01-30T05:53:21;102571.30;;;11.36;100.00
63281;BME280;49406;51.044;3.766;2024-01-30T05:55:55;102570.66;;;11.43;100.00
63281;BME280;49406;51.044;3.766;2024-01-30T05:58:29;102570.59;;;11.46;100.00
63281;BME280;49406;51.044;3.766;2024-01-30T06:01:08;102571.81;;;11.46;100.00
63281;BME280;49406;51.044;3.766;2024-01-30T06:03:41;102577.99;;;11.48;100.00
63281;BME280;49406;51.044;3.766;2024-01-30T06:06:16;102577.91;;;11.51;100.00
63281;BME280;49406;51.044;3.766;2024-01-30T06:08:51;102578.42;;;11.56;100.00
63281;BME280;49406;51.044;3.766;2024-01-30T06:11:28;102585.88;;;11.59;100.00
63281;BME280;49406;51.044;3.766;2024-01-30T06:14:03;102585.11;;;11.62;100.00
63281;BME280;49406;51.044;3.766;2024-01-30T06:16:37;102587.15;;;11.60;100.00
63281;BME280;49406;51.044;3.766;2024-01-30T06:19:10;102593.95;;;11.65;100.00
63281;BME280;49406;51.044;3.766;2024-01-30T06:21:45;102593.23;;;11.69;100.00
63281;BME280;49406;51.044;3.766;2024-01-30T06:24:19;102601.05;;;11.74;100.00
63281;BME280;49406;51.044;3.766;2024-01-30T06:26:54;102602.05;;;11.72;100.00
63281;BME280;49406;51.044;3.766;2024-01-30T06:29:29;102610.02;;;11.68;100.00
63281;BME280;49406;51.044;3.766;2024-01-30T06:32:04;102610.37;;;11.74;100.00
63281;BME280;49406;51.044;3.766;2024-01-30T06:34:39;102607.05;;;11.85;100.00
63281;BME280;49406;51.044;3.766;2024-01-30T06:37:14;102609.08;;;11.89;100.00
63281;BME280;49406;51.044;3.766;2024-01-30T06:39:49;102612.72;;;11.87;100.00
63281;BME280;49406;51.044;3.766;2024-01-30T06:42:24;102616.66;;;11.84;100.00
63281;BME280;49406;51.044;3.766;2024-01-30T06:44:58;102616.48;;;11.84;100.00
63281;BME280;49406;51.044;3.766;2024-01-30T06:47:33;102614.63;;;11.86;100.00
63281;BME280;49406;51.044;3.766;2024-01-30T06:50:09;102611.30;;;11.87;100.00
63281;BME280;49406;51.044;3.766;2024-01-30T06:52:43;102613.67;;;11.84;100.00
63281;BME280;49406;51.044;3.766;2024-01-30T06:55:18;102609.82;;;11.84;100.00
63281;BME280;49406;51.044;3.766;2024-01-30T06:57:52;102612.28;;;11.90;100.00
63281;BME280;49406;51.044;3.766;2024-01-30T07:00:27;102613.27;;;11.99;100.00
63281;BME280;49406;51.044;3.766;2024-01-30T07:03:01;102611.90;;;12.00;100.00
63281;BME280;49406;51.044;3.766;2024-01-30T07:05:36;102616.34;;;11.96;100.00
63281;BME280;49406;51.044;3.766;2024-01-30T07:08:10;102622.79;;;11.95;100.00
63281;BME280;49406;51.044;3.766;2024-01-30T07:10:45;102628.14;;;11.98;100.00
63281;BME280;49406;51.044;3.766;2024-01-30T07:13:20;102629.60;;;11.99;100.00
63281;BME280;49406;51.044;3.766;2024-01-30T07:15:55;102632.64;;;12.02;100.00
63281;BME280;49406;51.044;3.766;2024-01-30T07:18:29;102639.09;;;12.00;100.00
63281;BME280;49406;51.044;3.766;2024-01-30T07:21:04;102637.16;;;12.01;100.00
63281;BME280;49406;51.044;3.766;2024-01-30T07:23:39;102638.05;;;12.07;100.00
63281;BME280;49406;51.044;3.766;2024-01-30T07:26:15;102638.66;;;12.09;100.00
63281;BME280;49406;51.044;3.766;2024-01-30T07:28:49;102650.23;;;12.09;100.00
63281;BME280;49406;51.044;3.766;2024-01-30T07:31:24;102645.39;;;12.06;100.00
63281;BME280;49406;51.044;3.766;2024-01-30T07:33:58;102643.05;;;12.04;100.00
63281;BME280;49406;51.044;3.766;2024-01-30T07:36:33;102647.80;;;12.10;100.00
63281;BME280;49406;51.044;3.766;2024-01-30T07:39:07;102650.73;;;12.14;100.00
63281;BME280;49406;51.044;3.766;2024-01-30T07:41:43;102652.60;;;12.12;100.00
63281;BME280;49406;51.044;3.766;2024-01-30T07:44:17;102648.71;;;12.11;100.00
63281;BME280;49406;51.044;3.766;2024-01-30T07:46:52;102658.35;;;12.11;100.00
63281;BME280;49406;51.044;3.766;2024-01-30T07:49:28;102659.77;;;12.11;100.00
63281;BME280;49406;51.044;3.766;2024-01-30T07:52:03;102658.89;;;12.17;100.00
63281;BME280;49406;51.044;3.766;2024-01-30T07:54:52;102664.60;;;12.21;100.00
63281;BME280;49406;51.044;3.766;2024-01-30T07:57:26;102667.46;;;12.23;100.00
63281;BME280;49406;51.044;3.766;2024-01-30T08:00:01;102674.52;;;12.24;100.00
63281;BME280;49406;51.044;3.766;2024-01-30T08:02:37;102681.19;;;12.29;100.00
63281;BME280;49406;51.044;3.766;2024-01-30T08:05:11;102683.96;;;12.34;100.00
63281;BME280;49406;51.044;3.766;2024-01-30T08:07:48;102684.79;;;12.39;100.00
63281;BME280;49406;51.044;3.766;2024-01-30T08:10:23;102684.92;;;12.31;100.00
63281;BME280;49406;51.044;3.766;2024-01-30T08:12:57;102683.83;;;12.29;100.00
63281;BME280;49406;51.044;3.766;2024-01-30T08:15:32;102687.12;;;12.23;100.00
63281;BME280;49406;51.044;3.766;2024-01-30T08:18:07;102694.84;;;12.23;100.00
63281;BME280;49406;51.044;3.766;2024-01-30T08:20:42;102694.47;;;12.22;100.00
63281;BME280;49406;51.044;3.766;2024-01-30T08:23:17;102701.27;;;12.22;100.00
63281;BME280;49406;51.044;3.766;2024-01-30T08:25:51;102698.54;;;12.24;100.00
63281;BME280;49406;51.044;3.766;2024-01-30T08:28:26;102704.19;;;12.13;100.00
63281;BME280;49406;51.044;3.766;2024-01-30T08:31:01;102717.09;;;12.11;100.00
63281;BME280;49406;51.044;3.766;2024-01-30T08:33:36;102724.00;;;12.14;100.00
63281;BME280;49406;51.044;3.766;2024-01-30T08:36:10;102728.23;;;12.14;100.00
63281;BME280;49406;51.044;3.766;2024-01-30T08:38:45;102726.05;;;12.12;100.00
63281;BME280;49406;51.044;3.766;2024-01-30T08:41:20;102724.60;;;12.10;100.00
63281;BME280;49406;51.044;3.766;2024-01-30T08:43:54;102731.69;;;12.12;100.00
63281;BME280;49406;51.044;3.766;2024-01-30T08:46:29;102727.30;;;12.12;100.00
63281;BME280;49406;51.044;3.766;2024-01-30T08:49:03;102729.85;;;12.15;100.00
63281;BME280;49406;51.044;3.766;2024-01-30T08:51:38;102732.85;;;12.16;100.00
63281;BME280;49406;51.044;3.766;2024-01-30T08:54:13;102730.95;;;12.17;100.00
63281;BME280;49406;51.044;3.766;2024-01-30T08:56:47;102737.40;;;12.22;100.00
63281;BME280;49406;51.044;3.766;2024-01-30T08:59:22;102731.95;;;12.21;100.00
63281;BME280;49406;51.044;3.766;2024-01-30T09:01:56;102724.67;;;12.24;100.00
63281;BME280;49406;51.044;3.766;2024-01-30T09:04:32;102722.44;;;12.25;100.00
63281;BME280;49406;51.044;3.766;2024-01-30T09:07:08;102721.79;;;12.27;100.00
63281;BME280;49406;51.044;3.766;2024-01-30T09:09:43;102721.52;;;12.29;100.00
63281;BME280;49406;51.044;3.766;2024-01-30T09:12:18;102728.71;;;12.29;100.00
63281;BME280;49406;51.044;3.766;2024-01-30T09:14:52;102740.53;;;12.31;100.00
63281;BME280;49406;51.044;3.766;2024-01-30T09:17:28;102746.08;;;12.35;100.00
63281;BME280;49406;51.044;3.766;2024-01-30T09:20:03;102746.54;;;12.39;100.00
63281;BME280;49406;51.044;3.766;2024-01-30T09:22:38;102744.31;;;12.41;100.00
63281;BME280;49406;51.044;3.766;2024-01-30T09:25:12;102749.89;;;12.40;100.00
63281;BME280;49406;51.044;3.766;2024-01-30T09:27:47;102753.66;;;12.37;100.00
63281;BME280;49406;51.044;3.766;2024-01-30T09:30:22;102756.59;;;12.41;100.00
63281;BME280;49406;51.044;3.766;2024-01-30T09:32:56;102764.23;;;12.44;100.00
63281;BME280;49406;51.044;3.766;2024-01-30T09:35:31;102769.15;;;12.44;100.00
63281;BME280;49406;51.044;3.766;2024-01-30T09:38:05;102775.89;;;12.46;100.00
63281;BME280;49406;51.044;3.766;2024-01-30T09:40:40;102781.59;;;12.49;100.00
63281;BME280;49406;51.044;3.766;2024-01-30T09:43:18;102787.52;;;12.54;100.00
63281;BME280;49406;51.044;3.766;2024-01-30T09:45:58;102793.38;;;12.50;100.00
63281;BME280;49406;51.044;3.766;2024-01-30T09:48:34;102806.63;;;12.36;100.00
63281;BME280;49406;51.044;3.766;2024-01-30T09:51:09;102810.48;;;12.30;100.00
63281;BME280;49406;51.044;3.766;2024-01-30T09:53:45;102809.67;;;12.22;100.00
63281;BME280;49406;51.044;3.766;2024-01-30T09:56:20;102809.00;;;12.18;100.00
63281;BME280;49406;51.044;3.766;2024-01-30T09:58:55;102816.77;;;12.03;100.00
63281;BME280;49406;51.044;3.766;2024-01-30T10:01:29;102818.13;;;11.92;100.00
63281;BME280;49406;51.044;3.766;2024-01-30T10:04:05;102824.73;;;11.90;100.00
63281;BME280;49406;51.044;3.766;2024-01-30T10:06:41;102827.69;;;11.90;100.00
63281;BME280;49406;51.044;3.766;2024-01-30T10:09:16;102835.21;;;11.84;100.00
63281;BME280;49406;51.044;3.766;2024-01-30T10:11:52;102843.74;;;11.73;100.00
63281;BME280;49406;51.044;3.766;2024-01-30T10:14:27;102853.20;;;11.59;100.00
63281;BME280;49406;51.044;3.766;2024-01-30T10:17:02;102856.51;;;11.62;100.00
63281;BME280;49406;51.044;3.766;2024-01-30T10:19:37;102858.68;;;11.65;100.00
63281;BME280;49406;51.044;3.766;2024-01-30T10:22:12;102861.33;;;11.60;100.00
63281;BME280;49406;51.044;3.766;2024-01-30T10:24:47;102865.05;;;11.61;100.00
63281;BME280;49406;51.044;3.766;2024-01-30T10:27:26;102854.26;;;11.59;100.00
63281;BME280;49406;51.044;3.766;2024-01-30T10:30:02;102858.35;;;11.65;100.00
63281;BME280;49406;51.044;3.766;2024-01-30T10:32:37;102864.01;;;11.66;100.00
63281;BME280;49406;51.044;3.766;2024-01-30T10:35:12;102871.98;;;11.69;100.00
63281;BME280;49406;51.044;3.766;2024-01-30T10:37:48;102870.35;;;11.72;100.00
63281;BME280;49406;51.044;3.766;2024-01-30T10:40:26;102869.91;;;11.79;100.00
63281;BME280;49406;51.044;3.766;2024-01-30T10:43:03;102866.46;;;11.86;100.00
63281;BME280;49406;51.044;3.766;2024-01-30T10:45:39;102861.95;;;11.82;100.00
63281;BME280;49406;51.044;3.766;2024-01-30T10:48:14;102864.84;;;11.79;100.00
63281;BME280;49406;51.044;3.766;2024-01-30T10:50:51;102868.05;;;11.86;100.00
63281;BME280;49406;51.044;3.766;2024-01-30T10:53:28;102869.41;;;11.90;100.00
63281;BME280;49406;51.044;3.766;2024-01-30T10:56:05;102874.89;;;11.91;100.00
63281;BME280;49406;51.044;3.766;2024-01-30T10:58:41;102862.38;;;11.90;100.00
63281;BME280;49406;51.044;3.766;2024-01-30T11:01:16;102860.86;;;11.91;100.00
63281;BME280;49406;51.044;3.766;2024-01-30T11:03:51;102855.17;;;11.93;100.00
63281;BME280;49406;51.044;3.766;2024-01-30T11:06:27;102861.79;;;12.02;100.00
63281;BME280;49406;51.044;3.766;2024-01-30T11:09:05;102860.48;;;12.00;100.00
63281;BME280;49406;51.044;3.766;2024-01-30T11:11:56;102860.86;;;11.91;100.00
63281;BME280;49406;51.044;3.766;2024-01-30T11:14:33;102861.31;;;11.89;100.00
63281;BME280;49406;51.044;3.766;2024-01-30T11:17:07;102866.63;;;11.95;100.00
63281;BME280;49406;51.044;3.766;2024-01-30T11:19:44;102863.16;;;12.01;100.00
63281;BME280;49406;51.044;3.766;2024-01-30T11:22:23;102867.86;;;12.00;100.00
63281;BME280;49406;51.044;3.766;2024-01-30T11:24:56;102870.34;;;11.96;100.00
63281;BME280;49406;51.044;3.766;2024-01-30T11:27:31;102870.98;;;11.90;100.00
63281;BME280;49406;51.044;3.766;2024-01-30T11:30:08;102868.08;;;11.96;100.00
63281;BME280;49406;51.044;3.766;2024-01-30T11:32:43;102866.94;;;12.09;100.00
63281;BME280;49406;51.044;3.766;2024-01-30T11:35:17;102868.19;;;12.10;100.00
63281;BME280;49406;51.044;3.766;2024-01-30T11:37:52;102872.74;;;12.05;100.00
63281;BME280;49406;51.044;3.766;2024-01-30T11:40:28;102868.95;;;12.01;100.00
63281;BME280;49406;51.044;3.766;2024-01-30T11:43:04;102871.44;;;12.02;100.00
63281;BME280;49406;51.044;3.766;2024-01-30T11:45:39;102867.91;;;12.07;100.00
63281;BME280;49406;51.044;3.766;2024-01-30T11:48:14;102866.42;;;12.10;100.00
63281;BME280;49406;51.044;3.766;2024-01-30T11:50:49;102861.25;;;12.02;100.00
63281;BME280;49406;51.044;3.766;2024-01-30T11:53:24;102855.70;;;11.94;100.00
63281;BME280;49406;51.044;3.766;2024-01-30T11:55:59;102863.11;;;11.85;100.00
63281;BME280;49406;51.044;3.766;2024-01-30T11:58:34;102870.70;;;11.81;100.00
63281;BME280;49406;51.044;3.766;2024-01-30T12:01:09;102877.83;;;11.80;100.00
63281;BME280;49406;51.044;3.766;2024-01-30T12:03:44;102868.77;;;11.67;100.00
63281;BME280;49406;51.044;3.766;2024-01-30T12:06:23;102879.16;;;11.59;100.00
63281;BME280;49406;51.044;3.766;2024-01-30T12:09:00;102889.06;;;11.52;100.00
63281;BME280;49406;51.044;3.766;2024-01-30T12:11:46;102890.34;;;11.49;100.00
63281;BME280;49406;51.044;3.766;2024-01-30T12:14:20;102896.08;;;11.43;100.00
63281;BME280;49406;51.044;3.766;2024-01-30T12:16:56;102894.02;;;11.22;100.00
63281;BME280;49406;51.044;3.766;2024-01-30T12:19:31;102893.02;;;11.04;100.00
63281;BME280;49406;51.044;3.766;2024-01-30T12:22:06;102904.70;;;10.99;100.00
63281;BME280;49406;51.044;3.766;2024-01-30T12:24:40;102907.45;;;10.97;100.00
63281;BME280;49406;51.044;3.766;2024-01-30T12:27:17;102909.85;;;10.87;100.00
63281;BME280;49406;51.044;3.766;2024-01-30T12:29:58;102911.90;;;10.77;100.00
63281;BME280;49406;51.044;3.766;2024-01-30T12:32:33;102919.59;;;10.73;100.00
63281;BME280;49406;51.044;3.766;2024-01-30T12:35:12;102922.08;;;10.74;100.00
63281;BME280;49406;51.044;3.766;2024-01-30T12:37:48;102920.85;;;10.65;100.00
63281;BME280;49406;51.044;3.766;2024-01-30T12:40:23;102924.02;;;10.61;100.00
63281;BME280;49406;51.044;3.766;2024-01-30T12:42:59;102921.73;;;10.61;100.00
63281;BME280;49406;51.044;3.766;2024-01-30T12:45:34;102928.69;;;10.64;100.00
63281;BME280;49406;51.044;3.766;2024-01-30T12:48:10;102931.19;;;10.61;100.00
63281;BME280;49406;51.044;3.766;2024-01-30T12:50:44;102936.75;;;10.65;100.00
63281;BME280;49406;51.044;3.766;2024-01-30T12:53:19;102939.78;;;10.66;100.00
63281;BME280;49406;51.044;3.766;2024-01-30T12:55:54;102946.42;;;10.71;100.00
63281;BME280;49406;51.044;3.766;2024-01-30T12:58:28;102942.47;;;10.72;100.00
63281;BME280;49406;51.044;3.766;2024-01-30T13:01:03;102948.21;;;10.67;100.00
63281;BME280;49406;51.044;3.766;2024-01-30T13:03:37;102948.21;;;10.63;100.00
63281;BME280;49406;51.044;3.766;2024-01-30T13:06:12;102951.16;;;10.58;100.00
63281;BME280;49406;51.044;3.766;2024-01-30T13:08:46;102951.83;;;10.66;100.00
63281;BME280;49406;51.044;3.766;2024-01-30T13:11:21;102945.58;;;10.67;100.00
63281;BME280;49406;51.044;3.766;2024-01-30T13:13:56;102950.02;;;10.60;100.00
63281;BME280;49406;51.044;3.766;2024-01-30T13:16:30;102948.23;;;10.55;100.00
63281;BME280;49406;51.044;3.766;2024-01-30T13:19:05;102949.09;;;10.54;100.00
63281;BME280;49406;51.044;3.766;2024-01-30T13:21:39;102953.15;;;10.60;100.00